sensor_id;sensor_type;location;lat;lon;timestamp;P1;durP1;ratioP1;P2;durP2;ratioP2
33022;SDS011;19390;51.460;5.710;2024-01-27T00:00:24;24.52;;;5.88;;
33022;SDS011;19390;51.460;5.710;2024-01-27T00:02:50;21.05;;;4.88;;
33022;SDS011;19390;51.460;5.710;2024-01-27T00:05:16;13.95;;;4.88;;
33022;SDS011;19390;51.460;5.710;2024-01-27T00:07:42;30.55;;;5.25;;
33022;SDS011;19390;51.460;5.710;2024-01-27T00:10:07;15.88;;;4.78;;
33022;SDS011;19390;51.460;5.710;2024-01-27T00:12:33;18.02;;;4.20;;
33022;SDS011;19390;51.460;5.710;2024-01-27T00:14:59;13.73;;;4.18;;
33022;SDS011;19390;51.460;5.710;2024-01-27T00:17:24;13.18;;;4.55;;
33022;SDS011;19390;51.460;5.710;2024-01-27T00:19:51;18.35;;;4.82;;
33022;SDS011;19390;51.460;5.710;2024-01-27T00:22:17;15.88;;;4.97;;
33022;SDS011;19390;51.460;5.710;2024-01-27T00:24:43;33.67;;;6.20;;
33022;SDS011;19390;51.460;5.710;2024-01-27T00:27:08;20.00;;;4.93;;
33022;SDS011;19390;51.460;5.710;2024-01-27T00:29:34;18.60;;;4.30;;
33022;SDS011;19390;51.460;5.710;2024-01-27T00:31:59;20.15;;;5.38;;
33022;SDS011;19390;51.460;5.710;2024-01-27T00:34:25;19.45;;;5.13;;
33022;SDS011;19390;51.460;5.710;2024-01-27T00:36:51;18.35;;;4.82;;
33022;SDS011;19390;51.460;5.710;2024-01-27T00:39:17;15.00;;;5.18;;
33022;SDS011;19390;51.460;5.710;2024-01-27T00:41:43;25.30;;;5.20;;
33022;SDS011;19390;51.460;5.710;2024-01-27T00:44:09;25.42;;;5.35;;
33022;SDS011;19390;51.460;5.710;2024-01-27T00:46:36;20.13;;;4.95;;
33022;SDS011;19390;51.460;5.710;2024-01-27T00:49:02;19.40;;;5.68;;
33022;SDS011;19390;51.460;5.710;2024-01-27T00:51:28;20.48;;;5.88;;
33022;SDS011;19390;51.460;5.710;2024-01-27T00:53:53;28.95;;;5.72;;
33022;SDS011;19390;51.460;5.710;2024-01-27T00:56:19;14.32;;;4.85;;
33022;SDS011;19390;51.460;5.710;2024-01-27T00:58:44;19.98;;;5.60;;
33022;SDS011;19390;51.460;5.710;2024-01-27T01:01:10;25.55;;;6.18;;
33022;SDS011;19390;51.460;5.710;2024-01-27T01:03:35;20.27;;;5.63;;
33022;SDS011;19390;51.460;5.710;2024-01-27T01:06:01;22.60;;;5.85;;
33022;SDS011;19390;51.460;5.710;2024-01-27T01:08:28;25.63;;;5.60;;
33022;SDS011;19390;51.460;5.710;2024-01-27T01:10:53;21.15;;;5.78;;
33022;SDS011;19390;51.460;5.710;2024-01-27T01:13:19;30.25;;;7.10;;
33022;SDS011;19390;51.460;5.710;2024-01-27T01:15:45;21.88;;;6.57;;
33022;SDS011;19390;51.460;5.710;2024-01-27T01:18:10;17.80;;;5.40;;
33022;SDS011;19390;51.460;5.710;2024-01-27T01:20:36;19.33;;;5.80;;
33022;SDS011;19390;51.460;5.710;2024-01-27T01:23:01;23.23;;;5.95;;
33022;SDS011;19390;51.460;5.710;2024-01-27T01:25:27;21.75;;;7.22;;
33022;SDS011;19390;51.460;5.710;2024-01-27T01:27:53;24.50;;;6.43;;
33022;SDS011;19390;51.460;5.710;2024-01-27T01:30:19;31.73;;;7.20;;
33022;SDS011;19390;51.460;5.710;2024-01-27T01:32:44;16.80;;;5.35;;
33022;SDS011;19390;51.460;5.710;2024-01-27T01:35:10;18.60;;;6.32;;
33022;SDS011;19390;51.460;5.710;2024-01-27T01:37:36;42.42;;;8.55;;
33022;SDS011;19390;51.460;5.710;2024-01-27T01:40:01;16.13;;;5.35;;
33022;SDS011;19390;51.460;5.710;2024-01-27T01:42:28;22.23;;;7.95;;
33022;SDS011;19390;51.460;5.710;2024-01-27T01:44:54;37.78;;;6.95;;
33022;SDS011;19390;51.460;5.710;2024-01-27T01:47:20;20.13;;;6.30;;
33022;SDS011;19390;51.460;5.710;2024-01-27T01:49:47;18.23;;;6.88;;
33022;SDS011;19390;51.460;5.710;2024-01-27T01:52:14;29.42;;;6.45;;
33022;SDS011;19390;51.460;5.710;2024-01-27T01:54:46;22.35;;;6.53;;
33022;SDS011;19390;51.460;5.710;2024-01-27T01:57:13;29.02;;;8.15;;
33022;SDS011;19390;51.460;5.710;2024-01-27T01:59:39;23.10;;;7.07;;
33022;SDS011;19390;51.460;5.710;2024-01-27T02:02:06;22.20;;;6.75;;
33022;SDS011;19390;51.460;5.710;2024-01-27T02:04:39;25.60;;;7.28;;
33022;SDS011;19390;51.460;5.710;2024-01-27T02:07:09;25.30;;;6.20;;
33022;SDS011;19390;51.460;5.710;2024-01-27T02:09:34;19.20;;;6.43;;
33022;SDS011;19390;51.460;5.710;2024-01-27T02:12:01;20.58;;;5.88;;
33022;SDS011;19390;51.460;5.710;2024-01-27T02:14:26;23.15;;;6.45;;
33022;SDS011;19390;51.460;5.710;2024-01-27T02:16:53;24.25;;;6.18;;
33022;SDS011;19390;51.460;5.710;2024-01-27T02:19:19;26.25;;;7.05;;
33022;SDS011;19390;51.460;5.710;2024-01-27T02:21:44;20.23;;;7.15;;
33022;SDS011;19390;51.460;5.710;2024-01-27T02:24:10;22.30;;;7.07;;
33022;SDS011;19390;51.460;5.710;2024-01-27T02:26:36;20.13;;;6.72;;
33022;SDS011;19390;51.460;5.710;2024-01-27T02:29:01;16.70;;;6.22;;
33022;SDS011;19390;51.460;5.710;2024-01-27T02:31:28;30.77;;;6.35;;
33022;SDS011;19390;51.460;5.710;2024-01-27T02:33:53;28.63;;;6.97;;
33022;SDS011;19390;51.460;5.710;2024-01-27T02:36:19;19.10;;;6.80;;
33022;SDS011;19390;51.460;5.710;2024-01-27T02:38:45;22.10;;;6.88;;
33022;SDS011;19390;51.460;5.710;2024-01-27T02:41:10;24.67;;;6.93;;
33022;SDS011;19390;51.460;5.710;2024-01-27T02:43:36;25.17;;;7.70;;
33022;SDS011;19390;51.460;5.710;2024-01-27T02:46:03;20.85;;;7.10;;
33022;SDS011;19390;51.460;5.710;2024-01-27T02:48:31;23.38;;;6.28;;
33022;SDS011;19390;51.460;5.710;2024-01-27T02:50:57;20.27;;;6.50;;
33022;SDS011;19390;51.460;5.710;2024-01-27T02:53:22;18.65;;;7.03;;
33022;SDS011;19390;51.460;5.710;2024-01-27T02:55:48;21.98;;;6.07;;
33022;SDS011;19390;51.460;5.710;2024-01-27T02:58:14;32.40;;;6.63;;
33022;SDS011;19390;51.460;5.710;2024-01-27T03:00:39;18.27;;;6.13;;
33022;SDS011;19390;51.460;5.710;2024-01-27T03:03:05;19.33;;;6.03;;
33022;SDS011;19390;51.460;5.710;2024-01-27T03:05:30;22.27;;;6.25;;
33022;SDS011;19390;51.460;5.710;2024-01-27T03:07:56;30.08;;;6.15;;
33022;SDS011;19390;51.460;5.710;2024-01-27T03:10:22;23.67;;;6.43;;
33022;SDS011;19390;51.460;5.710;2024-01-27T03:12:47;28.25;;;5.75;;
33022;SDS011;19390;51.460;5.710;2024-01-27T03:15:13;26.23;;;7.38;;
33022;SDS011;19390;51.460;5.710;2024-01-27T03:17:39;19.05;;;5.63;;
33022;SDS011;19390;51.460;5.710;2024-01-27T03:20:05;20.52;;;6.47;;
33022;SDS011;19390;51.460;5.710;2024-01-27T03:22:33;23.13;;;6.88;;
33022;SDS011;19390;51.460;5.710;2024-01-27T03:24:59;18.73;;;6.00;;
33022;SDS011;19390;51.460;5.710;2024-01-27T03:27:24;15.30;;;5.60;;
33022;SDS011;19390;51.460;5.710;2024-01-27T03:29:50;20.88;;;6.20;;
33022;SDS011;19390;51.460;5.710;2024-01-27T03:32:16;23.35;;;7.60;;
33022;SDS011;19390;51.460;5.710;2024-01-27T03:34:43;19.40;;;6.20;;
33022;SDS011;19390;51.460;5.710;2024-01-27T03:37:10;25.38;;;6.63;;
33022;SDS011;19390;51.460;5.710;2024-01-27T03:39:36;19.10;;;6.32;;
33022;SDS011;19390;51.460;5.710;2024-01-27T03:42:01;21.40;;;6.18;;
33022;SDS011;19390;51.460;5.710;2024-01-27T03:44:27;20.70;;;5.75;;
33022;SDS011;19390;51.460;5.710;2024-01-27T03:46:52;17.20;;;6.13;;
33022;SDS011;19390;51.460;5.710;2024-01-27T03:49:18;24.85;;;6.47;;
33022;SDS011;19390;51.460;5.710;2024-01-27T03:51:44;19.90;;;7.22;;
33022;SDS011;19390;51.460;5.710;2024-01-27T03:54:09;22.98;;;6.20;;
33022;SDS011;19390;51.460;5.710;2024-01-27T03:56:35;18.38;;;6.32;;
33022;SDS011;19390;51.460;5.710;2024-01-27T03:59:00;24.08;;;6.65;;
33022;SDS011;19390;51.460;5.710;2024-01-27T04:01:26;17.02;;;5.45;;
33022;SDS011;19390;51.460;5.710;2024-01-27T04:03:51;18.05;;;6.20;;
33022;SDS011;19390;51.460;5.710;2024-01-27T04:06:17;18.23;;;6.15;;
33022;SDS011;19390;51.460;5.710;2024-01-27T04:08:42;18.90;;;5.25;;
33022;SDS011;19390;51.460;5.710;2024-01-27T04:11:20;21.50;;;6.55;;
33022;SDS011;19390;51.460;5.710;2024-01-27T04:13:48;15.43;;;6.22;;
33022;SDS011;19390;51.460;5.710;2024-01-27T04:16:15;17.48;;;6.28;;
33022;SDS011;19390;51.460;5.710;2024-01-27T04:18:41;26.60;;;7.90;;
33022;SDS011;19390;51.460;5.710;2024-01-27T04:21:07;21.80;;;6.18;;
33022;SDS011;19390;51.460;5.710;2024-01-27T04:23:33;26.77;;;6.65;;
33022;SDS011;19390;51.460;5.710;2024-01-27T04:25:59;17.30;;;6.32;;
33022;SDS011;19390;51.460;5.710;2024-01-27T04:28:24;19.40;;;7.07;;
33022;SDS011;19390;51.460;5.710;2024-01-27T04:30:50;16.17;;;6.30;;
33022;SDS011;19390;51.460;5.710;2024-01-27T04:33:16;13.77;;;5.85;;
33022;SDS011;19390;51.460;5.710;2024-01-27T04:35:41;25.27;;;7.65;;
33022;SDS011;19390;51.460;5.710;2024-01-27T04:38:10;22.35;;;7.00;;
33022;SDS011;19390;51.460;5.710;2024-01-27T04:40:35;16.05;;;6.95;;
33022;SDS011;19390;51.460;5.710;2024-01-27T04:43:01;21.08;;;6.38;;
33022;SDS011;19390;51.460;5.710;2024-01-27T04:45:27;21.33;;;8.55;;
33022;SDS011;19390;51.460;5.710;2024-01-27T04:47:53;25.70;;;6.97;;
33022;SDS011;19390;51.460;5.710;2024-01-27T04:50:19;23.83;;;8.00;;
33022;SDS011;19390;51.460;5.710;2024-01-27T04:52:45;21.35;;;8.05;;
33022;SDS011;19390;51.460;5.710;2024-01-27T04:55:11;16.15;;;6.50;;
33022;SDS011;19390;51.460;5.710;2024-01-27T04:57:37;17.20;;;7.32;;
33022;SDS011;19390;51.460;5.710;2024-01-27T05:00:03;16.77;;;7.20;;
33022;SDS011;19390;51.460;5.710;2024-01-27T05:02:32;20.67;;;7.60;;
33022;SDS011;19390;51.460;5.710;2024-01-27T05:04:58;16.63;;;6.85;;
33022;SDS011;19390;51.460;5.710;2024-01-27T05:07:24;16.02;;;7.55;;
33022;SDS011;19390;51.460;5.710;2024-01-27T05:09:49;24.30;;;8.52;;
33022;SDS011;19390;51.460;5.710;2024-01-27T05:12:15;25.88;;;8.43;;
33022;SDS011;19390;51.460;5.710;2024-01-27T05:14:44;23.27;;;8.00;;
33022;SDS011;19390;51.460;5.710;2024-01-27T05:17:10;27.20;;;8.93;;
33022;SDS011;19390;51.460;5.710;2024-01-27T05:19:36;32.90;;;9.07;;
33022;SDS011;19390;51.460;5.710;2024-01-27T05:22:01;21.52;;;8.48;;
33022;SDS011;19390;51.460;5.710;2024-01-27T05:24:27;24.17;;;8.07;;
33022;SDS011;19390;51.460;5.710;2024-01-27T05:26:53;24.65;;;8.07;;
33022;SDS011;19390;51.460;5.710;2024-01-27T05:29:18;32.88;;;8.50;;
33022;SDS011;19390;51.460;5.710;2024-01-27T05:31:44;22.38;;;8.13;;
33022;SDS011;19390;51.460;5.710;2024-01-27T05:34:10;21.23;;;8.05;;
33022;SDS011;19390;51.460;5.710;2024-01-27T05:36:36;19.23;;;8.20;;
33022;SDS011;19390;51.460;5.710;2024-01-27T05:39:01;20.38;;;8.98;;
33022;SDS011;19390;51.460;5.710;2024-01-27T05:41:29;26.92;;;8.73;;
33022;SDS011;19390;51.460;5.710;2024-01-27T05:43:55;21.50;;;8.18;;
33022;SDS011;19390;51.460;5.710;2024-01-27T05:46:24;18.90;;;7.85;;
33022;SDS011;19390;51.460;5.710;2024-01-27T05:48:50;29.30;;;9.00;;
33022;SDS011;19390;51.460;5.710;2024-01-27T05:51:18;29.05;;;8.63;;
33022;SDS011;19390;51.460;5.710;2024-01-27T05:53:45;34.22;;;9.63;;
33022;SDS011;19390;51.460;5.710;2024-01-27T05:56:11;22.65;;;8.52;;
33022;SDS011;19390;51.460;5.710;2024-01-27T05:58:37;38.13;;;9.15;;
33022;SDS011;19390;51.460;5.710;2024-01-27T06:01:03;21.00;;;8.27;;
33022;SDS011;19390;51.460;5.710;2024-01-27T06:03:28;20.02;;;9.15;;
33022;SDS011;19390;51.460;5.710;2024-01-27T06:05:54;28.15;;;9.75;;
33022;SDS011;19390;51.460;5.710;2024-01-27T06:08:20;24.65;;;9.60;;
33022;SDS011;19390;51.460;5.710;2024-01-27T06:10:46;22.42;;;9.00;;
33022;SDS011;19390;51.460;5.710;2024-01-27T06:13:12;29.05;;;9.48;;
33022;SDS011;19390;51.460;5.710;2024-01-27T06:15:37;31.08;;;11.95;;
33022;SDS011;19390;51.460;5.710;2024-01-27T06:18:03;24.48;;;8.70;;
33022;SDS011;19390;51.460;5.710;2024-01-27T06:20:29;24.33;;;8.80;;
33022;SDS011;19390;51.460;5.710;2024-01-27T06:22:54;51.35;;;24.75;;
33022;SDS011;19390;51.460;5.710;2024-01-27T06:25:20;29.92;;;10.10;;
33022;SDS011;19390;51.460;5.710;2024-01-27T06:27:46;24.42;;;9.40;;
33022;SDS011;19390;51.460;5.710;2024-01-27T06:30:12;38.13;;;17.25;;
33022;SDS011;19390;51.460;5.710;2024-01-27T06:32:39;29.67;;;10.73;;
33022;SDS011;19390;51.460;5.710;2024-01-27T06:35:04;59.55;;;34.92;;
33022;SDS011;19390;51.460;5.710;2024-01-27T06:37:30;50.63;;;23.52;;
33022;SDS011;19390;51.460;5.710;2024-01-27T06:39:56;26.38;;;11.38;;
33022;SDS011;19390;51.460;5.710;2024-01-27T06:42:22;28.98;;;10.55;;
33022;SDS011;19390;51.460;5.710;2024-01-27T06:44:47;24.35;;;10.10;;
33022;SDS011;19390;51.460;5.710;2024-01-27T06:47:13;26.23;;;10.77;;
33022;SDS011;19390;51.460;5.710;2024-01-27T06:49:39;28.38;;;9.48;;
33022;SDS011;19390;51.460;5.710;2024-01-27T06:52:05;31.58;;;10.77;;
33022;SDS011;19390;51.460;5.710;2024-01-27T06:54:30;34.28;;;11.10;;
33022;SDS011;19390;51.460;5.710;2024-01-27T06:56:56;27.73;;;10.80;;
33022;SDS011;19390;51.460;5.710;2024-01-27T06:59:23;27.23;;;10.60;;
33022;SDS011;19390;51.460;5.710;2024-01-27T07:01:49;26.75;;;9.98;;
33022;SDS011;19390;51.460;5.710;2024-01-27T07:04:15;25.80;;;10.07;;
33022;SDS011;19390;51.460;5.710;2024-01-27T07:06:40;24.30;;;10.02;;
33022;SDS011;19390;51.460;5.710;2024-01-27T07:09:06;33.65;;;12.05;;
33022;SDS011;19390;51.460;5.710;2024-01-27T07:11:32;25.25;;;10.63;;
33022;SDS011;19390;51.460;5.710;2024-01-27T07:13:58;38.60;;;10.70;;
33022;SDS011;19390;51.460;5.710;2024-01-27T07:16:23;27.42;;;11.07;;
33022;SDS011;19390;51.460;5.710;2024-01-27T07:18:49;24.63;;;9.57;;
33022;SDS011;19390;51.460;5.710;2024-01-27T07:21:16;32.63;;;11.88;;
33022;SDS011;19390;51.460;5.710;2024-01-27T07:23:42;31.65;;;11.82;;
33022;SDS011;19390;51.460;5.710;2024-01-27T07:26:11;29.50;;;11.25;;
33022;SDS011;19390;51.460;5.710;2024-01-27T07:28:37;34.80;;;12.85;;
33022;SDS011;19390;51.460;5.710;2024-01-27T07:31:03;27.92;;;11.65;;
33022;SDS011;19390;51.460;5.710;2024-01-27T07:33:30;32.78;;;11.68;;
33022;SDS011;19390;51.460;5.710;2024-01-27T07:35:56;26.02;;;10.77;;
33022;SDS011;19390;51.460;5.710;2024-01-27T07:38:22;31.77;;;11.27;;
33022;SDS011;19390;51.460;5.710;2024-01-27T07:40:48;38.83;;;11.70;;
33022;SDS011;19390;51.460;5.710;2024-01-27T07:43:13;35.13;;;10.65;;
33022;SDS011;19390;51.460;5.710;2024-01-27T07:45:39;38.03;;;13.93;;
33022;SDS011;19390;51.460;5.710;2024-01-27T07:48:04;30.10;;;11.50;;
33022;SDS011;19390;51.460;5.710;2024-01-27T07:50:31;24.73;;;10.73;;
33022;SDS011;19390;51.460;5.710;2024-01-27T07:52:57;53.63;;;12.00;;
33022;SDS011;19390;51.460;5.710;2024-01-27T07:55:22;30.35;;;12.48;;
33022;SDS011;19390;51.460;5.710;2024-01-27T07:57:48;35.33;;;11.65;;
33022;SDS011;19390;51.460;5.710;2024-01-27T08:00:14;32.50;;;10.77;;
33022;SDS011;19390;51.460;5.710;2024-01-27T08:02:39;73.93;;;15.15;;
33022;SDS011;19390;51.460;5.710;2024-01-27T08:05:05;29.10;;;10.93;;
33022;SDS011;19390;51.460;5.710;2024-01-27T08:07:31;28.30;;;10.88;;
33022;SDS011;19390;51.460;5.710;2024-01-27T08:09:57;29.10;;;10.18;;
33022;SDS011;19390;51.460;5.710;2024-01-27T08:12:22;34.13;;;9.95;;
33022;SDS011;19390;51.460;5.710;2024-01-27T08:14:48;31.85;;;10.75;;
33022;SDS011;19390;51.460;5.710;2024-01-27T08:17:14;27.50;;;9.25;;
33022;SDS011;19390;51.460;5.710;2024-01-27T08:19:39;21.85;;;8.98;;
33022;SDS011;19390;51.460;5.710;2024-01-27T08:22:05;27.73;;;8.82;;
33022;SDS011;19390;51.460;5.710;2024-01-27T08:24:31;18.98;;;7.38;;
33022;SDS011;19390;51.460;5.710;2024-01-27T08:26:57;21.73;;;7.60;;
33022;SDS011;19390;51.460;5.710;2024-01-27T08:29:23;21.23;;;7.28;;
33022;SDS011;19390;51.460;5.710;2024-01-27T08:31:49;23.15;;;6.18;;
33022;SDS011;19390;51.460;5.710;2024-01-27T08:34:15;15.35;;;5.63;;
33022;SDS011;19390;51.460;5.710;2024-01-27T08:36:41;19.70;;;7.68;;
33022;SDS011;19390;51.460;5.710;2024-01-27T08:39:06;15.88;;;5.85;;
33022;SDS011;19390;51.460;5.710;2024-01-27T08:41:32;15.77;;;5.68;;
33022;SDS011;19390;51.460;5.710;2024-01-27T08:43:59;20.52;;;6.25;;
33022;SDS011;19390;51.460;5.710;2024-01-27T08:46:24;18.02;;;6.03;;
33022;SDS011;19390;51.460;5.710;2024-01-27T08:48:50;18.13;;;6.65;;
33022;SDS011;19390;51.460;5.710;2024-01-27T08:51:16;20.00;;;6.18;;
33022;SDS011;19390;51.460;5.710;2024-01-27T08:53:42;17.08;;;6.60;;
33022;SDS011;19390;51.460;5.710;2024-01-27T08:56:13;20.83;;;5.63;;
33022;SDS011;19390;51.460;5.710;2024-01-27T08:58:40;18.95;;;6.18;;
33022;SDS011;19390;51.460;5.710;2024-01-27T09:01:05;16.27;;;6.20;;
33022;SDS011;19390;51.460;5.710;2024-01-27T09:03:33;14.93;;;5.60;;
33022;SDS011;19390;51.460;5.710;2024-01-27T09:05:59;22.85;;;6.93;;
33022;SDS011;19390;51.460;5.710;2024-01-27T09:08:25;18.27;;;7.18;;
33022;SDS011;19390;51.460;5.710;2024-01-27T09:10:50;19.88;;;8.52;;
33022;SDS011;19390;51.460;5.710;2024-01-27T09:13:16;24.25;;;7.72;;
33022;SDS011;19390;51.460;5.710;2024-01-27T09:15:42;18.02;;;7.72;;
33022;SDS011;19390;51.460;5.710;2024-01-27T09:18:07;22.45;;;10.45;;
33022;SDS011;19390;51.460;5.710;2024-01-27T09:20:33;43.88;;;11.10;;
33022;SDS011;19390;51.460;5.710;2024-01-27T09:22:58;30.02;;;11.15;;
33022;SDS011;19390;51.460;5.710;2024-01-27T09:25:24;29.88;;;10.48;;
33022;SDS011;19390;51.460;5.710;2024-01-27T09:27:52;33.55;;;10.35;;
33022;SDS011;19390;51.460;5.710;2024-01-27T09:30:18;38.90;;;11.63;;
33022;SDS011;19390;51.460;5.710;2024-01-27T09:32:44;27.00;;;10.73;;
33022;SDS011;19390;51.460;5.710;2024-01-27T09:35:09;29.25;;;10.73;;
33022;SDS011;19390;51.460;5.710;2024-01-27T09:37:35;32.22;;;11.05;;
33022;SDS011;19390;51.460;5.710;2024-01-27T09:40:00;27.98;;;11.13;;
33022;SDS011;19390;51.460;5.710;2024-01-27T09:42:27;37.47;;;11.85;;
33022;SDS011;19390;51.460;5.710;2024-01-27T09:44:53;33.78;;;12.85;;
33022;SDS011;19390;51.460;5.710;2024-01-27T09:47:23;38.38;;;10.68;;
33022;SDS011;19390;51.460;5.710;2024-01-27T09:49:49;32.95;;;10.52;;
33022;SDS011;19390;51.460;5.710;2024-01-27T09:52:16;29.25;;;9.20;;
33022;SDS011;19390;51.460;5.710;2024-01-27T09:54:42;23.55;;;9.93;;
33022;SDS011;19390;51.460;5.710;2024-01-27T09:57:08;21.38;;;8.80;;
33022;SDS011;19390;51.460;5.710;2024-01-27T09:59:36;28.77;;;9.88;;
33022;SDS011;19390;51.460;5.710;2024-01-27T10:02:05;28.85;;;9.10;;
33022;SDS011;19390;51.460;5.710;2024-01-27T10:04:34;29.05;;;9.27;;
33022;SDS011;19390;51.460;5.710;2024-01-27T10:07:00;25.77;;;9.05;;
33022;SDS011;19390;51.460;5.710;2024-01-27T10:09:25;20.70;;;8.75;;
33022;SDS011;19390;51.460;5.710;2024-01-27T10:11:51;22.50;;;9.75;;
33022;SDS011;19390;51.460;5.710;2024-01-27T10:14:18;26.05;;;9.52;;
33022;SDS011;19390;51.460;5.710;2024-01-27T10:16:44;18.98;;;7.32;;
33022;SDS011;19390;51.460;5.710;2024-01-27T10:19:17;26.67;;;9.25;;
33022;SDS011;19390;51.460;5.710;2024-01-27T10:24:10;28.77;;;8.00;;
33022;SDS011;19390;51.460;5.710;2024-01-27T10:26:35;29.25;;;7.10;;
33022;SDS011;19390;51.460;5.710;2024-01-27T10:29:01;23.02;;;8.40;;
33022;SDS011;19390;51.460;5.710;2024-01-27T10:31:27;26.15;;;7.93;;
33022;SDS011;19390;51.460;5.710;2024-01-27T10:33:54;23.67;;;8.88;;
33022;SDS011;19390;51.460;5.710;2024-01-27T10:36:24;27.83;;;8.55;;
33022;SDS011;19390;51.460;5.710;2024-01-27T10:38:53;28.65;;;8.05;;
33022;SDS011;19390;51.460;5.710;2024-01-27T10:41:22;26.10;;;7.97;;
33022;SDS011;19390;51.460;5.710;2024-01-27T10:43:51;21.38;;;8.05;;
33022;SDS011;19390;51.460;5.710;2024-01-27T10:46:20;37.47;;;8.63;;
33022;SDS011;19390;51.460;5.710;2024-01-27T10:48:50;22.50;;;7.72;;
33022;SDS011;19390;51.460;5.710;2024-01-27T10:51:18;18.80;;;7.55;;
33022;SDS011;19390;51.460;5.710;2024-01-27T10:53:53;27.33;;;8.05;;
33022;SDS011;19390;51.460;5.710;2024-01-27T10:56:24;26.50;;;7.90;;
33022;SDS011;19390;51.460;5.710;2024-01-27T10:58:51;22.45;;;7.03;;
33022;SDS011;19390;51.460;5.710;2024-01-27T11:01:17;26.55;;;8.48;;
33022;SDS011;19390;51.460;5.710;2024-01-27T11:03:47;22.85;;;7.03;;
33022;SDS011;19390;51.460;5.710;2024-01-27T11:06:14;18.80;;;7.18;;
33022;SDS011;19390;51.460;5.710;2024-01-27T11:08:42;25.08;;;8.25;;
33022;SDS011;19390;51.460;5.710;2024-01-27T11:11:08;22.92;;;7.28;;
33022;SDS011;19390;51.460;5.710;2024-01-27T11:13:34;30.40;;;6.72;;
33022;SDS011;19390;51.460;5.710;2024-01-27T11:16:01;26.45;;;6.30;;
33022;SDS011;19390;51.460;5.710;2024-01-27T11:18:27;28.73;;;6.07;;
33022;SDS011;19390;51.460;5.710;2024-01-27T11:20:54;23.73;;;6.15;;
33022;SDS011;19390;51.460;5.710;2024-01-27T11:23:30;18.30;;;6.40;;
33022;SDS011;19390;51.460;5.710;2024-01-27T11:26:04;26.90;;;5.57;;
33022;SDS011;19390;51.460;5.710;2024-01-27T11:28:31;24.88;;;5.40;;
33022;SDS011;19390;51.460;5.710;2024-01-27T11:30:56;14.63;;;4.50;;
33022;SDS011;19390;51.460;5.710;2024-01-27T11:33:25;20.55;;;3.95;;
33022;SDS011;19390;51.460;5.710;2024-01-27T11:36:03;22.95;;;4.57;;
33022;SDS011;19390;51.460;5.710;2024-01-27T11:38:30;13.25;;;4.03;;
33022;SDS011;19390;51.460;5.710;2024-01-27T11:40:56;12.32;;;3.72;;
33022;SDS011;19390;51.460;5.710;2024-01-27T11:43:22;17.38;;;4.13;;
33022;SDS011;19390;51.460;5.710;2024-01-27T11:45:55;14.20;;;3.90;;
33022;SDS011;19390;51.460;5.710;2024-01-27T11:48:24;12.00;;;2.78;;
33022;SDS011;19390;51.460;5.710;2024-01-27T11:51:02;22.88;;;5.05;;
33022;SDS011;19390;51.460;5.710;2024-01-27T11:53:27;13.45;;;3.58;;
33022;SDS011;19390;51.460;5.710;2024-01-27T11:55:56;17.58;;;3.60;;
33022;SDS011;19390;51.460;5.710;2024-01-27T11:58:21;12.93;;;3.22;;
33022;SDS011;19390;51.460;5.710;2024-01-27T12:00:47;19.90;;;3.58;;
33022;SDS011;19390;51.460;5.710;2024-01-27T12:03:13;29.48;;;3.67;;
33022;SDS011;19390;51.460;5.710;2024-01-27T12:05:38;10.63;;;2.85;;
33022;SDS011;19390;51.460;5.710;2024-01-27T12:08:04;18.42;;;3.80;;
33022;SDS011;19390;51.460;5.710;2024-01-27T12:10:33;17.45;;;3.80;;
33022;SDS011;19390;51.460;5.710;2024-01-27T12:12:58;11.43;;;3.60;;
33022;SDS011;19390;51.460;5.710;2024-01-27T12:15:25;11.98;;;3.22;;
33022;SDS011;19390;51.460;5.710;2024-01-27T12:17:51;13.93;;;3.40;;
33022;SDS011;19390;51.460;5.710;2024-01-27T12:20:17;16.42;;;2.95;;
33022;SDS011;19390;51.460;5.710;2024-01-27T12:22:43;10.98;;;2.88;;
33022;SDS011;19390;51.460;5.710;2024-01-27T12:25:10;11.60;;;2.53;;
33022;SDS011;19390;51.460;5.710;2024-01-27T12:27:39;9.70;;;2.72;;
33022;SDS011;19390;51.460;5.710;2024-01-27T12:30:05;11.00;;;2.53;;
33022;SDS011;19390;51.460;5.710;2024-01-27T12:32:31;11.25;;;2.70;;
33022;SDS011;19390;51.460;5.710;2024-01-27T12:34:57;9.63;;;2.97;;
33022;SDS011;19390;51.460;5.710;2024-01-27T12:37:26;12.00;;;3.10;;
33022;SDS011;19390;51.460;5.710;2024-01-27T12:39:51;11.13;;;2.30;;
33022;SDS011;19390;51.460;5.710;2024-01-27T12:42:17;10.20;;;2.83;;
33022;SDS011;19390;51.460;5.710;2024-01-27T12:44:43;8.45;;;2.30;;
33022;SDS011;19390;51.460;5.710;2024-01-27T12:47:12;12.45;;;2.65;;
33022;SDS011;19390;51.460;5.710;2024-01-27T12:49:39;9.27;;;2.20;;
33022;SDS011;19390;51.460;5.710;2024-01-27T12:52:05;13.68;;;2.25;;
33022;SDS011;19390;51.460;5.710;2024-01-27T12:54:31;12.98;;;3.20;;
33022;SDS011;19390;51.460;5.710;2024-01-27T12:56:57;11.10;;;2.40;;
33022;SDS011;19390;51.460;5.710;2024-01-27T12:59:23;11.82;;;2.17;;
33022;SDS011;19390;51.460;5.710;2024-01-27T13:01:49;7.35;;;2.03;;
33022;SDS011;19390;51.460;5.710;2024-01-27T13:04:15;12.30;;;2.00;;
33022;SDS011;19390;51.460;5.710;2024-01-27T13:06:40;11.75;;;2.40;;
33022;SDS011;19390;51.460;5.710;2024-01-27T13:09:07;10.13;;;2.50;;
33022;SDS011;19390;51.460;5.710;2024-01-27T13:11:36;12.02;;;2.20;;
33022;SDS011;19390;51.460;5.710;2024-01-27T13:14:02;13.13;;;2.28;;
33022;SDS011;19390;51.460;5.710;2024-01-27T13:16:28;10.13;;;2.53;;
33022;SDS011;19390;51.460;5.710;2024-01-27T13:18:53;10.70;;;2.22;;
33022;SDS011;19390;51.460;5.710;2024-01-27T13:21:19;12.88;;;2.42;;
33022;SDS011;19390;51.460;5.710;2024-01-27T13:23:44;7.35;;;2.28;;
33022;SDS011;19390;51.460;5.710;2024-01-27T13:26:10;7.70;;;2.33;;
33022;SDS011;19390;51.460;5.710;2024-01-27T13:28:35;13.40;;;2.60;;
33022;SDS011;19390;51.460;5.710;2024-01-27T13:31:01;11.45;;;2.22;;
33022;SDS011;19390;51.460;5.710;2024-01-27T13:33:26;9.95;;;2.22;;
33022;SDS011;19390;51.460;5.710;2024-01-27T13:35:54;6.72;;;2.05;;
33022;SDS011;19390;51.460;5.710;2024-01-27T13:38:20;11.20;;;2.50;;
33022;SDS011;19390;51.460;5.710;2024-01-27T13:40:48;12.05;;;2.60;;
33022;SDS011;19390;51.460;5.710;2024-01-27T13:43:14;10.75;;;2.47;;
33022;SDS011;19390;51.460;5.710;2024-01-27T13:45:40;12.85;;;2.45;;
33022;SDS011;19390;51.460;5.710;2024-01-27T13:48:06;16.83;;;2.70;;
33022;SDS011;19390;51.460;5.710;2024-01-27T13:50:35;18.63;;;2.80;;
33022;SDS011;19390;51.460;5.710;2024-01-27T13:53:01;11.50;;;2.45;;
33022;SDS011;19390;51.460;5.710;2024-01-27T13:55:28;11.48;;;2.45;;
33022;SDS011;19390;51.460;5.710;2024-01-27T13:57:53;11.57;;;2.72;;
33022;SDS011;19390;51.460;5.710;2024-01-27T14:00:22;13.20;;;3.83;;
33022;SDS011;19390;51.460;5.710;2024-01-27T14:02:48;10.38;;;2.40;;
33022;SDS011;19390;51.460;5.710;2024-01-27T14:05:13;8.85;;;2.40;;
33022;SDS011;19390;51.460;5.710;2024-01-27T14:07:39;8.15;;;2.55;;
33022;SDS011;19390;51.460;5.710;2024-01-27T14:10:05;8.65;;;2.00;;
33022;SDS011;19390;51.460;5.710;2024-01-27T14:12:31;11.30;;;2.40;;
33022;SDS011;19390;51.460;5.710;2024-01-27T14:15:03;11.90;;;2.33;;
33022;SDS011;19390;51.460;5.710;2024-01-27T14:17:32;10.90;;;2.45;;
33022;SDS011;19390;51.460;5.710;2024-01-27T14:19:59;10.93;;;2.67;;
33022;SDS011;19390;51.460;5.710;2024-01-27T14:22:25;12.07;;;2.50;;
33022;SDS011;19390;51.460;5.710;2024-01-27T14:24:51;12.10;;;2.33;;
33022;SDS011;19390;51.460;5.710;2024-01-27T14:27:19;10.88;;;2.47;;
33022;SDS011;19390;51.460;5.710;2024-01-27T14:29:51;9.77;;;3.30;;